createdAt,value
2022-11-17T00:00:48.619Z,7.73
2022-11-17T00:03:19.629Z,7.83
2022-11-17T00:05:47.498Z,7.50
2022-11-17T00:08:15.305Z,7.63
2022-11-17T00:10:43.108Z,8.40
2022-11-17T00:13:30.009Z,7.47
2022-11-17T00:15:57.910Z,7.80
2022-11-17T00:18:43.255Z,7.60
2022-11-17T00:21:21.690Z,6.87
2022-11-17T00:23:50.210Z,8.50
2022-11-17T00:26:19.366Z,7.70
2022-11-17T00:28:48.645Z,8.43
2022-11-17T00:31:34.135Z,6.50
2022-11-17T00:34:07.786Z,7.27
2022-11-17T00:36:38.964Z,7.67
2022-11-17T00:39:07.507Z,8.03
2022-11-17T00:41:35.602Z,7.70
2022-11-17T00:44:05.647Z,7.43
2022-11-17T00:46:33.773Z,7.20
2022-11-17T00:49:01.700Z,6.63
2022-11-17T00:51:29.673Z,6.67
2022-11-17T00:53:57.891Z,6.57
2022-11-17T00:56:26.536Z,6.17
2022-11-17T00:58:54.670Z,7.93
2022-11-17T01:01:24.539Z,7.27
2022-11-17T01:04:02.635Z,6.80
2022-11-17T01:06:32.738Z,7.07
2022-11-17T01:09:01.061Z,5.87
2022-11-17T01:11:29.066Z,6.90
2022-11-17T01:13:59.071Z,7.63
2022-11-17T01:16:29.179Z,6.07
2022-11-17T01:18:57.136Z,5.67
2022-11-17T01:21:27.453Z,7.20
2022-11-17T01:23:57.150Z,7.37
2022-11-17T01:26:27.210Z,6.73
2022-11-17T01:28:55.145Z,6.80
2022-11-17T01:31:24.502Z,7.03
2022-11-17T01:33:53.849Z,7.73
2022-11-17T01:36:23.972Z,6.80
2022-11-17T01:38:51.976Z,6.47
2022-11-17T01:41:22.194Z,5.90
2022-11-17T01:43:52.214Z,7.00
2022-11-17T01:46:30.012Z,7.72
2022-11-17T01:49:04.771Z,6.87
2022-11-17T01:51:33.926Z,6.67
2022-11-17T01:54:02.216Z,6.47
2022-11-17T01:56:34.532Z,5.90
2022-11-17T01:59:06.960Z,6.30
2022-11-17T02:01:34.918Z,5.63
2022-11-17T02:04:06.505Z,5.63
2022-11-17T02:06:36.590Z,6.82
2022-11-17T02:09:05.081Z,6.40
2022-11-17T02:11:36.047Z,6.47
2022-11-17T02:14:05.232Z,6.60
2022-11-17T02:16:33.095Z,6.27
2022-11-17T02:19:01.018Z,5.60
2022-11-17T02:21:45.769Z,5.93
2022-11-17T02:24:53.614Z,6.53
2022-11-17T02:27:54.757Z,6.07
2022-11-17T02:30:23.832Z,6.27
2022-11-17T02:33:03.177Z,6.03
2022-11-17T02:35:37.840Z,6.50
2022-11-17T02:38:12.098Z,6.00
2022-11-17T02:40:43.777Z,6.10
2022-11-17T02:43:33.204Z,5.13
2022-11-17T02:46:05.138Z,6.68
2022-11-17T02:48:36.561Z,6.80
2022-11-17T02:51:05.337Z,6.20
2022-11-17T02:53:34.352Z,7.13
2022-11-17T02:56:02.914Z,6.77
2022-11-17T02:58:32.347Z,6.27
2022-11-17T03:01:34.511Z,6.20
2022-11-17T03:04:20.684Z,6.90
2022-11-17T03:06:52.941Z,6.20
2022-11-17T03:09:28.120Z,6.60
2022-11-17T03:12:02.446Z,5.97
2022-11-17T03:14:37.755Z,7.32
2022-11-17T03:17:08.397Z,6.07
2022-11-17T03:19:41.214Z,6.60
2022-11-17T03:22:13.860Z,6.17
2022-11-17T03:24:44.087Z,6.90
2022-11-17T03:27:15.567Z,5.73
2022-11-17T03:29:48.439Z,8.50
2022-11-17T03:32:16.725Z,5.67
2022-11-17T03:34:47.427Z,6.63
2022-11-17T03:37:17.046Z,5.93
2022-11-17T03:39:48.956Z,6.70
2022-11-17T03:42:20.406Z,7.18
2022-11-17T03:44:52.320Z,7.30
2022-11-17T03:47:21.308Z,6.23
2022-11-17T03:49:52.952Z,6.73
2022-11-17T03:52:21.412Z,7.93
2022-11-17T03:54:49.479Z,7.83
2022-11-17T03:57:21.275Z,7.40
2022-11-17T03:59:56.835Z,6.90
2022-11-17T04:02:25.969Z,8.10
2022-11-17T04:05:09.001Z,5.37
2022-11-17T04:07:40.065Z,6.50
2022-11-17T04:10:09.837Z,6.03
2022-11-17T04:12:55.211Z,6.73
2022-11-17T04:15:42.554Z,7.60
2022-11-17T04:18:11.620Z,5.40
2022-11-17T04:20:39.523Z,6.10
2022-11-17T04:23:08.527Z,6.15
2022-11-17T04:25:54.509Z,11.93
2022-11-17T04:28:38.064Z,9.10
2022-11-17T04:31:09.599Z,13.20
2022-11-17T04:33:38.645Z,27.30
2022-11-17T04:36:07.618Z,5.37
2022-11-17T04:38:35.933Z,6.73
2022-11-17T04:41:23.861Z,7.30
2022-11-17T04:43:52.195Z,7.20
2022-11-17T04:46:22.597Z,6.20
2022-11-17T04:48:50.446Z,8.20
2022-11-17T04:51:18.315Z,8.73
2022-11-17T04:53:48.769Z,7.67
2022-11-17T04:56:16.756Z,7.40
2022-11-17T04:58:44.743Z,6.73
2022-11-17T05:01:17.378Z,9.23
2022-11-17T05:03:47.927Z,22.00
2022-11-17T05:06:17.132Z,7.63
2022-11-17T05:08:45.530Z,8.07
2022-11-17T05:11:31.991Z,8.47
2022-11-17T05:14:00.482Z,6.33
2022-11-17T05:16:45.955Z,7.37
2022-11-17T05:19:16.987Z,8.03
2022-11-17T05:21:44.863Z,8.37
2022-11-17T05:24:14.208Z,8.00
2022-11-17T05:26:43.010Z,7.40
2022-11-17T05:29:14.785Z,7.97
2022-11-17T05:31:43.135Z,8.10
2022-11-17T05:34:13.253Z,7.87
2022-11-17T05:36:43.045Z,7.90
2022-11-17T05:39:11.234Z,8.63
2022-11-17T05:41:39.148Z,7.77
2022-11-17T05:44:07.128Z,8.20
2022-11-17T05:46:35.199Z,8.43
2022-11-17T05:49:04.532Z,8.40
2022-11-17T05:51:33.098Z,7.73
2022-11-17T05:54:02.438Z,8.40
2022-11-17T05:56:36.977Z,8.37
2022-11-17T05:59:14.380Z,9.77
2022-11-17T06:01:45.378Z,8.27
2022-11-17T06:04:15.741Z,8.07
2022-11-17T06:06:43.650Z,9.20
2022-11-17T06:09:13.155Z,8.40
2022-11-17T06:11:40.984Z,9.00
2022-11-17T06:14:08.934Z,7.20
2022-11-17T06:16:41.401Z,8.20
2022-11-17T06:19:13.279Z,7.53
2022-11-17T06:22:09.935Z,7.70
2022-11-17T06:24:30.863Z,7.50
2022-11-17T06:26:59.883Z,8.30
2022-11-17T06:29:30.005Z,7.40
2022-11-17T06:31:58.504Z,7.30
2022-11-17T06:34:26.698Z,7.70
2022-11-17T06:36:54.546Z,6.53
2022-11-17T06:39:22.425Z,7.13
2022-11-17T06:41:51.666Z,6.63
2022-11-17T06:44:19.563Z,6.60
2022-11-17T06:46:49.208Z,6.70
2022-11-17T06:49:17.462Z,7.40
2022-11-17T06:51:45.773Z,6.67
2022-11-17T06:54:15.004Z,6.27
2022-11-17T06:56:43.615Z,7.13
2022-11-17T06:59:12.815Z,5.67
2022-11-17T07:01:40.684Z,5.80
2022-11-17T07:04:08.909Z,6.63
2022-11-17T07:06:37.429Z,6.67
2022-11-17T07:09:05.306Z,7.93
2022-11-17T07:11:35.304Z,7.80
2022-11-17T07:14:03.918Z,6.13
2022-11-17T07:16:34.000Z,7.00
2022-11-17T07:19:03.627Z,5.10
2022-11-17T07:21:31.995Z,7.13
2022-11-17T07:24:00.066Z,6.27
2022-11-17T07:26:28.852Z,5.87
2022-11-17T07:28:56.690Z,6.80
2022-11-17T07:31:24.536Z,6.97
2022-11-17T07:33:54.457Z,6.17
2022-11-17T07:36:22.460Z,7.20
2022-11-17T07:38:50.319Z,6.97
2022-11-17T07:41:18.248Z,6.17
2022-11-17T07:43:46.184Z,6.90
2022-11-17T07:46:15.233Z,6.40
2022-11-17T07:48:43.899Z,7.00
2022-11-17T07:51:14.121Z,4.77
2022-11-17T07:53:42.047Z,6.00
2022-11-17T07:56:11.564Z,6.47
2022-11-17T07:58:40.068Z,6.20
2022-11-17T08:01:08.680Z,5.20
2022-11-17T08:03:36.692Z,6.63
2022-11-17T08:06:05.045Z,6.20
2022-11-17T08:08:35.064Z,6.57
2022-11-17T08:11:04.603Z,5.60
2022-11-17T08:13:32.479Z,6.27
2022-11-17T08:16:00.437Z,6.40
2022-11-17T08:18:28.584Z,5.67
2022-11-17T08:21:02.317Z,4.20
2022-11-17T08:23:30.151Z,6.47
2022-11-17T08:25:59.500Z,6.00
2022-11-17T08:28:27.349Z,6.87
2022-11-17T08:30:55.764Z,5.53
2022-11-17T08:33:23.668Z,7.00
2022-11-17T08:35:51.570Z,6.00
2022-11-17T08:38:19.488Z,6.73
2022-11-17T08:40:47.707Z,6.63
2022-11-17T08:43:16.992Z,7.40
2022-11-17T08:45:44.920Z,5.90
2022-11-17T08:48:12.748Z,6.77
2022-11-17T08:50:40.759Z,7.87
2022-11-17T08:53:13.904Z,3.47
2022-11-17T08:55:41.975Z,8.37
2022-11-17T08:58:09.969Z,6.67
2022-11-17T09:00:40.027Z,6.70
2022-11-17T09:03:08.299Z,6.57
2022-11-17T09:05:38.175Z,7.03
2022-11-17T09:08:37.989Z,7.13
2022-11-17T09:10:54.241Z,6.70
2022-11-17T09:13:22.104Z,7.67
2022-11-17T09:15:51.363Z,7.73
2022-11-17T09:18:19.290Z,7.90
2022-11-17T09:20:47.151Z,7.93
2022-11-17T09:23:15.104Z,7.47
2022-11-17T09:25:43.005Z,8.03
2022-11-17T09:28:10.873Z,8.13
2022-11-17T09:30:38.808Z,7.30
2022-11-17T09:33:08.037Z,7.67
2022-11-17T09:35:35.898Z,8.73
2022-11-17T09:38:03.827Z,8.30
2022-11-17T09:40:37.526Z,7.37
2022-11-17T09:43:08.035Z,7.17
2022-11-17T09:45:38.696Z,8.50
2022-11-17T09:48:39.605Z,6.10
2022-11-17T09:51:03.625Z,9.57
2022-11-17T09:53:38.519Z,7.73
2022-11-17T09:56:08.867Z,8.97
2022-11-17T09:58:45.196Z,7.87
2022-11-17T10:01:14.727Z,8.17
2022-11-17T10:03:46.155Z,8.53
2022-11-17T10:06:17.262Z,9.07
2022-11-17T10:08:49.650Z,8.63
2022-11-17T10:11:33.893Z,7.73
2022-11-17T10:14:11.838Z,9.87
2022-11-17T10:16:41.401Z,8.47
2022-11-17T10:19:16.559Z,9.17
2022-11-17T10:21:44.665Z,9.03
2022-11-17T10:24:12.553Z,8.20
2022-11-17T10:26:48.324Z,7.90
2022-11-17T10:29:23.179Z,8.87
2022-11-17T10:31:51.172Z,8.87
2022-11-17T10:34:40.209Z,8.27
2022-11-17T10:37:25.483Z,8.50
2022-11-17T10:40:08.169Z,6.97
2022-11-17T10:42:36.026Z,7.77
2022-11-17T10:45:04.040Z,9.30
2022-11-17T10:47:40.546Z,8.77
2022-11-17T10:50:24.636Z,9.00
2022-11-17T10:52:53.734Z,7.23
2022-11-17T10:55:25.728Z,8.13
2022-11-17T10:57:56.479Z,8.40
2022-11-17T11:00:26.311Z,7.40
2022-11-17T11:03:08.893Z,5.00
2022-11-17T11:05:38.962Z,8.03
2022-11-17T11:08:19.484Z,6.63
2022-11-17T11:10:48.522Z,7.90
2022-11-17T11:13:21.473Z,8.70
2022-11-17T11:15:49.373Z,4.00
2022-11-17T11:18:19.631Z,7.87
2022-11-17T11:20:57.262Z,6.80
2022-11-17T11:23:35.964Z,7.73
2022-11-17T11:26:13.125Z,7.90
2022-11-17T11:28:54.652Z,5.40
2022-11-17T11:31:27.788Z,7.93
2022-11-17T11:34:03.824Z,8.30
2022-11-17T11:36:37.784Z,7.67
2022-11-17T11:39:08.738Z,8.40
2022-11-17T11:41:50.490Z,5.77
2022-11-17T11:44:30.156Z,7.80
2022-11-17T11:47:01.799Z,7.23
2022-11-17T11:49:34.042Z,6.83
2022-11-17T11:52:05.813Z,7.50
2022-11-17T11:54:40.338Z,6.70
2022-11-17T11:57:11.012Z,8.17
2022-11-17T11:59:48.078Z,6.63
2022-11-17T12:02:26.211Z,7.60
2022-11-17T12:05:01.477Z,7.30
2022-11-17T12:07:36.549Z,6.43
2022-11-17T12:10:06.651Z,5.87
2022-11-17T12:12:37.645Z,5.20
2022-11-17T12:15:30.385Z,7.10
2022-11-17T12:18:03.972Z,7.53
2022-11-17T12:20:54.604Z,6.90
2022-11-17T12:23:54.380Z,6.70
2022-11-17T12:26:24.646Z,6.67
2022-11-17T12:29:24.516Z,6.70
2022-11-17T12:31:53.904Z,5.57
2022-11-17T12:34:27.528Z,6.63
2022-11-17T12:37:21.640Z,6.93
2022-11-17T12:40:04.781Z,7.40
2022-11-17T12:42:33.096Z,5.10
2022-11-17T12:45:12.229Z,7.10
2022-11-17T12:47:42.032Z,7.93
2022-11-17T12:50:33.944Z,6.80
2022-11-17T12:53:35.458Z,7.27
2022-11-17T12:56:33.248Z,5.03
2022-11-17T12:59:11.573Z,6.43
2022-11-17T13:01:46.718Z,5.53
2022-11-17T13:04:16.730Z,5.33
2022-11-17T13:07:00.914Z,6.63
2022-11-17T13:09:31.081Z,8.57
2022-11-17T13:12:05.392Z,5.00
2022-11-17T13:14:33.897Z,7.40
2022-11-17T13:17:02.680Z,6.00
2022-11-17T13:19:36.315Z,4.67
2022-11-17T13:22:06.587Z,5.57
2022-11-17T13:24:36.347Z,6.83
2022-11-17T13:27:08.373Z,5.87
2022-11-17T13:29:36.441Z,5.40
2022-11-17T13:32:18.558Z,6.07
2022-11-17T13:34:49.310Z,6.43
2022-11-17T13:37:19.023Z,7.10
2022-11-17T13:40:19.755Z,5.20
2022-11-17T13:42:49.558Z,6.40
2022-11-17T13:45:17.697Z,6.30
2022-11-17T13:47:47.857Z,6.43
2022-11-17T13:50:34.274Z,6.67
2022-11-17T13:53:18.187Z,5.33
2022-11-17T13:55:46.910Z,6.90
2022-11-17T13:58:31.107Z,6.70
2022-11-17T14:01:00.294Z,7.17
2022-11-17T14:03:34.319Z,6.07
2022-11-17T14:06:02.604Z,6.37
2022-11-17T14:08:33.852Z,6.73
2022-11-17T14:11:16.463Z,7.03
2022-11-17T14:13:47.124Z,6.20
2022-11-17T14:16:24.993Z,7.23
2022-11-17T14:19:03.912Z,6.50
2022-11-17T14:21:33.717Z,6.73
2022-11-17T14:24:08.104Z,7.97
2022-11-17T14:26:37.844Z,7.43
2022-11-17T14:29:07.453Z,7.93
2022-11-17T14:31:35.360Z,6.60
2022-11-17T14:34:03.187Z,7.07
2022-11-17T14:36:32.849Z,8.00
2022-11-17T14:39:02.607Z,6.60
2022-11-17T14:44:50.641Z,6.57
2022-11-17T14:47:19.070Z,5.90
2022-11-17T14:49:47.026Z,6.83
2022-11-17T14:52:14.938Z,7.40
2022-11-17T14:54:43.075Z,7.10
2022-11-17T14:57:11.016Z,5.80
2022-11-17T14:59:39.272Z,6.77
2022-11-17T15:02:09.926Z,6.77
2022-11-17T15:04:56.493Z,4.40
2022-11-17T15:07:25.205Z,6.70
2022-11-17T15:09:53.304Z,7.67
2022-11-17T15:12:21.384Z,7.03
2022-11-17T15:14:49.393Z,6.27
2022-11-17T15:17:18.868Z,8.43
2022-11-17T15:19:46.775Z,6.47
2022-11-17T15:22:14.978Z,7.95
2022-11-17T15:24:43.186Z,8.20
2022-11-17T15:27:11.397Z,6.73
2022-11-17T15:29:39.559Z,7.50
2022-11-17T15:32:08.136Z,6.60
2022-11-17T15:34:37.422Z,6.60
2022-11-17T15:37:05.535Z,7.30
2022-11-17T15:39:33.653Z,7.80
2022-11-17T15:42:01.599Z,7.40
2022-11-17T15:44:30.105Z,7.67
2022-11-17T15:46:58.007Z,9.05
2022-11-17T15:49:28.751Z,6.10
2022-11-17T15:51:57.984Z,8.23
2022-11-17T15:54:26.134Z,9.13
2022-11-17T15:56:54.031Z,9.13
2022-11-17T15:59:22.551Z,8.80
2022-11-17T16:01:50.696Z,8.67
2022-11-17T16:04:18.632Z,9.10
2022-11-17T16:06:47.296Z,8.37
2022-11-17T16:09:17.373Z,11.55
2022-11-17T16:11:45.705Z,9.30
2022-11-17T16:14:14.783Z,10.33
2022-11-17T16:16:43.712Z,8.75
2022-11-17T16:19:11.834Z,9.68
2022-11-17T16:21:39.771Z,10.90
2022-11-17T16:24:08.092Z,9.40
2022-11-17T16:26:37.763Z,8.63
2022-11-17T16:29:07.412Z,9.73
2022-11-17T16:31:37.348Z,9.23
2022-11-17T16:34:06.588Z,10.07
2022-11-17T16:36:37.011Z,8.68
2022-11-17T16:39:06.493Z,11.07
2022-11-17T16:41:35.383Z,10.35
2022-11-17T16:44:09.031Z,10.75
2022-11-17T16:46:37.348Z,8.38
2022-11-17T16:49:07.844Z,10.50
2022-11-17T16:51:35.944Z,9.40
2022-11-17T16:54:05.284Z,8.57
2022-11-17T16:56:33.903Z,10.53
2022-11-17T16:59:02.210Z,8.43
2022-11-17T17:01:33.014Z,8.73
2022-11-17T17:04:02.296Z,8.27
2022-11-17T17:06:30.837Z,8.40
2022-11-17T17:09:00.460Z,8.97
2022-11-17T17:11:31.406Z,8.90
2022-11-17T17:14:00.254Z,9.67
2022-11-17T17:16:29.010Z,10.80
2022-11-17T17:19:00.189Z,8.73
2022-11-17T17:21:30.003Z,9.17
2022-11-17T17:23:58.204Z,8.93
2022-11-17T17:26:27.354Z,9.70
2022-11-17T17:28:56.858Z,9.97
2022-11-17T17:31:25.895Z,8.27
2022-11-17T17:33:54.076Z,9.40
2022-11-17T17:36:24.549Z,8.47
2022-11-17T17:38:56.504Z,8.37
2022-11-17T17:41:26.040Z,9.67
2022-11-17T17:43:58.132Z,8.57
2022-11-17T17:46:26.376Z,9.23
2022-11-17T17:48:54.245Z,10.90
2022-11-17T17:51:24.975Z,9.77
2022-11-17T17:53:53.195Z,7.18
2022-11-17T17:56:22.218Z,9.38
2022-11-17T17:58:50.767Z,9.27
2022-11-17T18:01:20.217Z,10.50
2022-11-17T18:03:50.135Z,8.20
2022-11-17T18:06:19.905Z,8.80
2022-11-17T18:08:49.678Z,9.38
2022-11-17T18:11:18.986Z,10.52
2022-11-17T18:13:48.464Z,10.40
2022-11-17T18:16:18.027Z,8.80
2022-11-17T18:18:46.260Z,6.88
2022-11-17T18:21:15.985Z,9.98
2022-11-17T18:23:44.210Z,11.05
2022-11-17T18:26:15.680Z,9.55
2022-11-17T18:28:44.833Z,10.95
2022-11-17T18:31:12.758Z,9.32
2022-11-17T18:33:40.673Z,12.27
2022-11-17T18:36:10.252Z,10.15
2022-11-17T18:38:38.641Z,10.43
2022-11-17T18:41:07.729Z,10.32
2022-11-17T18:43:37.582Z,11.70
2022-11-17T18:46:06.725Z,11.85
2022-11-17T18:48:35.116Z,11.50
2022-11-17T18:51:20.364Z,11.52
2022-11-17T18:53:49.084Z,10.48
2022-11-17T18:56:18.784Z,12.30
2022-11-17T18:58:48.080Z,10.82
2022-11-17T19:01:18.029Z,12.50
2022-11-17T19:03:47.244Z,11.23
2022-11-17T19:06:16.461Z,9.02
2022-11-17T19:08:44.701Z,10.60
2022-11-17T19:11:12.789Z,10.02
2022-11-17T19:13:42.078Z,11.82
2022-11-17T19:16:13.044Z,12.07
2022-11-17T19:18:41.502Z,11.38
2022-11-17T19:21:11.295Z,11.05
2022-11-17T19:23:41.766Z,11.95
2022-11-17T19:26:11.133Z,11.52
2022-11-17T19:28:39.611Z,11.73
2022-11-17T19:31:09.023Z,11.40
2022-11-17T19:33:39.813Z,10.43
2022-11-17T19:36:09.825Z,11.53
2022-11-17T19:38:38.575Z,12.30
2022-11-17T19:41:08.102Z,12.25
2022-11-17T19:43:41.700Z,12.38
2022-11-17T19:46:13.580Z,11.88
2022-11-17T19:48:43.502Z,10.80
2022-11-17T19:51:16.587Z,10.68
2022-11-17T19:53:44.658Z,11.70
2022-11-17T19:56:12.577Z,12.00
2022-11-17T19:58:41.515Z,12.23
2022-11-17T20:01:11.702Z,12.15
2022-11-17T20:03:40.315Z,11.70
2022-11-17T20:06:10.323Z,13.35
2022-11-17T20:08:38.682Z,11.70
2022-11-17T20:11:08.438Z,11.48
2022-11-17T20:13:36.996Z,12.85
2022-11-17T20:16:11.726Z,7.82
2022-11-17T20:18:40.265Z,11.70
2022-11-17T20:21:10.379Z,9.40
2022-11-17T20:23:39.125Z,12.65
2022-11-17T20:26:08.497Z,12.75
2022-11-17T20:28:37.364Z,9.63
2022-11-17T20:31:09.787Z,12.80
2022-11-17T20:33:37.970Z,11.18
2022-11-17T20:36:06.664Z,11.52
2022-11-17T20:38:36.568Z,12.23
2022-11-17T20:41:05.563Z,13.80
2022-11-17T20:43:34.694Z,11.40
2022-11-17T20:46:03.528Z,13.45
2022-11-17T20:48:33.975Z,13.80
2022-11-17T20:51:03.981Z,15.10
2022-11-17T20:53:32.237Z,11.68
2022-11-17T20:56:02.582Z,11.98
2022-11-17T20:58:30.858Z,12.45
2022-11-17T21:00:58.846Z,13.13
2022-11-17T21:03:27.630Z,10.57
2022-11-17T21:05:58.745Z,13.80
2022-11-17T21:08:28.460Z,13.00
2022-11-17T21:10:56.949Z,12.88
2022-11-17T21:13:26.757Z,11.82
2022-11-17T21:16:06.492Z,12.48
2022-11-17T21:18:34.830Z,12.38
2022-11-17T21:21:04.664Z,10.15
2022-11-17T21:23:32.725Z,11.85
2022-11-17T21:26:04.531Z,14.23
2022-11-17T21:28:33.876Z,11.75
2022-11-17T21:31:07.618Z,12.50
2022-11-17T21:33:35.837Z,13.13
2022-11-17T21:36:04.029Z,13.57
2022-11-17T21:38:31.904Z,12.35
2022-11-17T21:41:02.966Z,14.00
2022-11-17T21:43:30.986Z,12.45
2022-11-17T21:46:03.555Z,12.85
2022-11-17T21:48:31.472Z,13.93
2022-11-17T21:50:59.696Z,12.07
2022-11-17T21:53:27.648Z,12.38
2022-11-17T21:56:01.262Z,12.55
2022-11-17T21:58:29.205Z,11.35
2022-11-17T22:00:57.422Z,12.40
2022-11-17T22:03:27.492Z,13.77
2022-11-17T22:06:00.930Z,11.53
2022-11-17T22:08:30.001Z,9.35
2022-11-17T22:10:57.889Z,12.80
2022-11-17T22:13:25.704Z,12.95
2022-11-17T22:15:53.881Z,14.15
2022-11-17T22:18:21.739Z,11.88
2022-11-17T22:20:52.887Z,12.75
2022-11-17T22:23:20.689Z,13.52
2022-11-17T22:25:54.299Z,14.45
2022-11-17T22:28:22.385Z,12.90
2022-11-17T22:30:50.588Z,12.15
2022-11-17T22:33:18.617Z,10.27
2022-11-17T22:35:46.607Z,11.63
2022-11-17T22:38:16.285Z,11.88
2022-11-17T22:40:44.341Z,12.90
2022-11-17T22:43:15.425Z,14.07
2022-11-17T22:45:43.857Z,12.10
2022-11-17T22:48:11.674Z,13.00
2022-11-17T22:50:39.572Z,14.73
2022-11-17T22:53:07.622Z,11.60
2022-11-17T22:55:37.468Z,11.93
2022-11-17T22:58:05.308Z,11.45
2022-11-17T23:00:33.171Z,12.88
2022-11-17T23:03:01.107Z,13.90
2022-11-17T23:05:29.005Z,13.80
2022-11-17T23:07:56.851Z,14.52
2022-11-17T23:10:24.779Z,11.65
2022-11-17T23:12:54.537Z,13.07
2022-11-17T23:15:22.661Z,13.88
2022-11-17T23:17:50.516Z,14.38
2022-11-17T23:20:18.523Z,16.90
2022-11-17T23:22:46.401Z,14.10
2022-11-17T23:25:14.293Z,14.25
2022-11-17T23:27:42.167Z,14.73
2022-11-17T23:30:12.959Z,14.38
2022-11-17T23:32:40.871Z,16.40
2022-11-17T23:35:09.800Z,15.35
2022-11-17T23:37:37.666Z,14.77
2022-11-17T23:40:06.396Z,13.10
2022-11-17T23:42:42.836Z,16.02
2022-11-17T23:45:14.363Z,14.65
2022-11-17T23:47:42.272Z,14.80
2022-11-17T23:50:10.396Z,16.48
2022-11-17T23:52:38.247Z,14.98
2022-11-17T23:55:06.819Z,13.57
2022-11-17T23:57:34.949Z,12.32
